Terminal Aerodrome Forecast
Issued by NWS

Current Version | Previous Version | Text Only | Print | Product List | Glossary On
Versions: 1 2 3 4 5 6 7 8 9 10 11 12 13
000
FTUS44 KLIX 042326
TAFGPT
TAF
KGPT 042326Z 0500/0524 13012KT P6SM SCT025 SCT250
     FM050200 12007KT P6SM SCT250
     FM051500 13013KT P6SM SCT040=

USA.gov is the U.S. government's official web portal to all federal, state and local government web resources and services.